This is the latest recevied weather packets stored in our database for station/object N5ZKK. If no packets are shown the sender has not sent any weather packets the latest 10 day(s).
| Time | Temp. | Humidity | Pressure | Rain* | Wind** | Luminosity | Snow |
|---|---|---|---|---|---|---|---|
| 1777606531 | 17.78° C | 99% | 1016.2 hPa | 0 mm | - | - | - |
| 1777605947 | 17.78° C | 99% | 1016.1 hPa | 0 mm | - | - | - |
| 1777604719 | 17.78° C | 99% | 1015.4 hPa | 1.02 mm | - | - | - |
| 1777600516 | 18.33° C | 99% | 1014.3 hPa | 2.54 mm | - | - | - |
| 1777599321 | 18.89° C | 97% | 1014.2 hPa | 1.27 mm | - | - | - |
| 1777595119 | 21.11° C | 87% | 1013.1 hPa | 0 mm | - | - | - |
| 1777593325 | 22.22° C | 86% | 1013.2 hPa | 0 mm | - | - | - |
| 1777583724 | 23.89° C | 77% | 1013.1 hPa | 0 mm | - | - | - |
| 1777578326 | 19.44° C | 91% | 1014.3 hPa | 0 mm | - | - | - |
| 1777577124 | 18.33° C | 93% | 1014.7 hPa | 0 mm | - | - | - |
| 1777575319 | 17.22° C | 95% | 1015.1 hPa | 0 mm | - | - | - |
| 1777572325 | 17.78° C | 93% | 1015.2 hPa | 0 mm | - | - | - |
| 1777560316 | 15.56° C | 99% | 1015.3 hPa | 0 mm | - | - | - |
| 1777559718 | 15.56° C | 99% | 1015.7 hPa | 0 mm | - | - | - |
| 1777559120 | 15.56° C | 99% | 1015.9 hPa | 0 mm | - | - | - |
| 1777556126 | 15° C | 99% | 1015.6 hPa | 0 mm | - | - | - |
| 1777551325 | 14.44° C | 99% | 1015.7 hPa | 0.25 mm | - | - | - |
| 1777544725 | 14.44° C | 99% | 1014.1 hPa | 0 mm | - | - | - |
| 1777543530 | 15° C | 99% | 1014 hPa | 0 mm | - | - | - |
| 1777542316 | 15° C | 99% | 1014 hPa | 0 mm | - | - | - |
| 1777541718 | 15° C | 99% | 1014.3 hPa | 0 mm | - | - | - |
| 1777539327 | 15.56° C | 99% | 1015.5 hPa | 0 mm | - | - | - |
| 1777538119 | 15.56° C | 99% | 1015.3 hPa | 0 mm | - | - | - |
| 1777533929 | 15.56° C | 99% | 1014.7 hPa | 0 mm | - | - | - |
| 1777532117 | 15.56° C | 99% | 1015.7 hPa | 0 mm | - | - | - |
* Rain latest hour (hover to see other rain measurements)
** Current wind speed in m/s (hover to see current wind gust speed)